Time;durP1;ratioP1;P1;durP2;ratioP2;P2;SDS_P1;SDS_P2;PMS_P1;PMS_P2;Temp;Humidity;BMP_temperature;BMP_pressure;BME280_temperature;BME280_humidity;BME280_pressure;Samples;Min_cycle;Max_cycle;Signal;HPM_P1;HPM_P2
2022/11/28 00:01:08;;;;;;;13.00;8.90;;;;;;;;;;5098422;28;20035;-81
2022/11/28 00:03:34;;;;;;;14.75;9.38;;;;;;;;;;5086077;28;20073;-83
2022/11/28 00:06:04;;;;;;;15.05;9.88;;;;;;;;;;5051731;28;20013;-81
2022/11/28 00:08:30;;;;;;;16.35;10.95;;;;;;;;;;5086253;28;20107;-82
2022/11/28 00:10:56;;;;;;;13.05;9.23;;;;;;;;;;5077307;28;20021;-81
2022/11/28 00:13:22;;;;;;;14.52;9.95;;;;;;;;;;5077825;28;20366;-80
2022/11/28 00:15:58;;;;;;;13.93;9.52;;;;;;;;;;5083395;28;20119;-83
2022/11/28 00:18:25;;;;;;;11.98;8.55;;;;;;;;;;5084371;28;20021;-82
2022/11/28 00:20:51;;;;;;;11.43;8.85;;;;;;;;;;5084737;28;20036;-83
2022/11/28 00:23:17;;;;;;;12.40;8.57;;;;;;;;;;5083361;28;20070;-81
2022/11/28 00:25:43;;;;;;;13.88;9.48;;;;;;;;;;5085467;28;20044;-82
2022/11/28 00:28:09;;;;;;;17.45;11.30;;;;;;;;;;5081902;27;20020;-80
2022/11/28 00:30:36;;;;;;;16.42;10.40;;;;;;;;;;5103604;28;20407;-81
2022/11/28 00:33:02;;;;;;;13.48;9.30;;;;;;;;;;5109150;28;20032;-80
2022/11/28 00:35:28;;;;;;;14.63;9.68;;;;;;;;;;5111618;28;20020;-80
2022/11/28 00:37:54;;;;;;;14.63;10.05;;;;;;;;;;5107110;28;20011;-80
2022/11/28 00:40:26;;;;;;;17.70;10.02;;;;;;;;;;5085974;28;20052;-82
2022/11/28 00:42:52;;;;;;;12.52;8.57;;;;;;;;;;5056154;28;20029;-82
2022/11/28 00:45:21;;;;;;;14.77;9.15;;;;;;;;;;5082129;28;20028;-83
2022/11/28 00:47:48;;;;;;;12.50;8.43;;;;;;;;;;5067967;28;20055;-82
2022/11/28 00:50:14;;;;;;;14.18;9.32;;;;;;;;;;5086762;28;20075;-82
2022/11/28 00:52:40;;;;;;;14.68;9.40;;;;;;;;;;5084039;28;20039;-81
2022/11/28 00:55:06;;;;;;;15.50;9.73;;;;;;;;;;5067649;28;20032;-82
2022/11/28 00:57:33;;;;;;;16.25;10.80;;;;;;;;;;5082514;28;20023;-82
2022/11/28 00:59:59;;;;;;;16.35;10.02;;;;;;;;;;5066373;28;20031;-81
2022/11/28 01:02:25;;;;;;;16.45;10.48;;;;;;;;;;5092090;28;20024;-79
2022/11/28 01:04:51;;;;;;;16.05;10.40;;;;;;;;;;5093052;28;20047;-80
2022/11/28 01:07:17;;;;;;;16.98;10.30;;;;;;;;;;5068511;28;20064;-80
2022/11/28 01:09:43;;;;;;;15.32;10.00;;;;;;;;;;5060608;28;20028;-81
2022/11/28 01:12:09;;;;;;;14.93;10.48;;;;;;;;;;5061989;28;20039;-81
2022/11/28 01:14:35;;;;;;;15.40;9.77;;;;;;;;;;5093738;28;20028;-79
2022/11/28 01:17:01;;;;;;;14.13;9.45;;;;;;;;;;5082636;28;20076;-80
2022/11/28 01:19:27;;;;;;;12.15;8.30;;;;;;;;;;5083552;28;20047;-82
2022/11/28 01:21:53;;;;;;;15.07;10.02;;;;;;;;;;5086716;28;20040;-80
2022/11/28 01:24:19;;;;;;;16.65;10.13;;;;;;;;;;5107618;28;20089;-80
2022/11/28 01:26:45;;;;;;;13.40;9.38;;;;;;;;;;5111681;28;20043;-79
2022/11/28 01:29:11;;;;;;;14.48;9.25;;;;;;;;;;5110083;28;20033;-80
2022/11/28 01:31:37;;;;;;;17.38;10.20;;;;;;;;;;5093067;28;20024;-80
2022/11/28 01:34:04;;;;;;;15.77;9.80;;;;;;;;;;5092999;28;20078;-81
2022/11/28 01:36:30;;;;;;;15.40;9.07;;;;;;;;;;5091482;28;20051;-80
2022/11/28 01:38:56;;;;;;;16.25;10.38;;;;;;;;;;5090894;28;20036;-80
2022/11/28 01:41:23;;;;;;;15.23;10.02;;;;;;;;;;5075417;28;20024;-81
2022/11/28 01:44:16;;;;;;;13.15;9.45;;;;;;;;;;5098246;28;20016;-82
2022/11/28 01:46:42;;;;;;;15.20;9.15;;;;;;;;;;5076481;28;20044;-81
2022/11/28 01:49:14;;;;;;;13.65;9.15;;;;;;;;;;5117195;27;20032;-81
2022/11/28 01:51:44;;;;;;;13.68;9.43;;;;;;;;;;5091574;28;20039;-82
2022/11/28 01:54:10;;;;;;;13.55;8.85;;;;;;;;;;5088654;28;20018;-81
2022/11/28 01:56:42;;;;;;;15.23;9.55;;;;;;;;;;5098108;28;20113;-81
2022/11/28 01:59:09;;;;;;;11.88;7.88;;;;;;;;;;5090829;28;20016;-80
2022/11/28 02:01:35;;;;;;;17.25;10.73;;;;;;;;;;5115399;28;20091;-81
2022/11/28 02:04:02;;;;;;;14.73;10.10;;;;;;;;;;5115571;28;20040;-81
2022/11/28 02:06:29;;;;;;;13.30;8.98;;;;;;;;;;5113975;27;20019;-81
2022/11/28 02:08:55;;;;;;;15.23;10.07;;;;;;;;;;5101175;28;20469;-82
2022/11/28 02:11:21;;;;;;;15.77;10.05;;;;;;;;;;5069510;28;20028;-81
2022/11/28 02:13:50;;;;;;;13.43;9.23;;;;;;;;;;5064576;28;20029;-82
2022/11/28 02:16:16;;;;;;;15.93;10.07;;;;;;;;;;5094113;28;20040;-81
2022/11/28 02:18:52;;;;;;;13.75;9.80;;;;;;;;;;5087310;28;20393;-82
2022/11/28 02:21:23;;;;;;;19.40;10.07;;;;;;;;;;5063378;28;20036;-81
2022/11/28 02:23:55;;;;;;;16.17;10.38;;;;;;;;;;5062914;28;20016;-81
2022/11/28 02:26:40;;;;;;;16.58;11.05;;;;;;;;;;5080439;28;20036;-81
2022/11/28 02:29:19;;;;;;;17.00;11.77;;;;;;;;;;5063466;28;20025;-81
2022/11/28 02:31:56;;;;;;;15.48;10.48;;;;;;;;;;5084273;28;20425;-81
2022/11/28 02:34:28;;;;;;;13.23;8.93;;;;;;;;;;5100601;27;20341;-80
2022/11/28 02:37:03;;;;;;;15.57;9.98;;;;;;;;;;5100550;28;20513;-81
2022/11/28 02:39:44;;;;;;;16.27;10.10;;;;;;;;;;5065104;28;20115;-81
2022/11/28 02:42:27;;;;;;;15.98;9.90;;;;;;;;;;5049828;28;20408;-81
2022/11/28 02:44:53;;;;;;;;;;;;;;;;;;5082575;28;20028;-81
2022/11/28 02:47:23;;;;;;;10.65;8.30;;;;;;;;;;5081598;28;19911;-82
2022/11/28 02:49:55;;;;;;;12.90;9.27;;;;;;;;;;5083353;28;20020;-82
2022/11/28 02:52:24;;;;;;;15.57;9.02;;;;;;;;;;5100263;28;20057;-81
2022/11/28 02:54:51;;;;;;;13.23;9.35;;;;;;;;;;5114773;28;20044;-81
2022/11/28 02:57:17;;;;;;;13.65;8.85;;;;;;;;;;5098944;27;20027;-79
2022/11/28 02:59:50;;;;;;;13.60;9.10;;;;;;;;;;5114124;28;20028;-80
2022/11/28 03:02:20;;;;;;;14.27;9.80;;;;;;;;;;5108774;27;20040;-81
2022/11/28 03:04:52;;;;;;;13.27;9.45;;;;;;;;;;5105511;28;20023;-80
2022/11/28 03:07:28;;;;;;;13.32;9.05;;;;;;;;;;5095710;27;20036;-81
2022/11/28 03:09:57;;;;;;;13.43;9.40;;;;;;;;;;5081104;28;20062;-81
2022/11/28 03:12:32;;;;;;;15.25;10.38;;;;;;;;;;5084030;28;20054;-81
2022/11/28 03:15:04;;;;;;;15.52;10.55;;;;;;;;;;5083940;28;20025;-80
2022/11/28 03:17:46;;;;;;;15.80;9.40;;;;;;;;;;5089465;28;20473;-81
2022/11/28 03:20:35;;;;;;;14.55;9.95;;;;;;;;;;5085890;28;20032;-81
2022/11/28 03:23:16;;;;;;;15.32;9.93;;;;;;;;;;5059314;28;20033;-81
2022/11/28 03:25:49;;;;;;;21.75;12.50;;;;;;;;;;5086812;28;20020;-81
2022/11/28 03:28:33;;;;;;;17.15;11.85;;;;;;;;;;5094748;28;20040;-82
2022/11/28 03:31:04;;;;;;;19.50;11.20;;;;;;;;;;5095578;28;20134;-81
2022/11/28 03:33:33;;;;;;;19.87;12.87;;;;;;;;;;5093223;28;20028;-82
2022/11/28 03:36:02;;;;;;;20.80;12.40;;;;;;;;;;5087445;28;20028;-82
2022/11/28 03:38:32;;;;;;;19.95;12.30;;;;;;;;;;5099496;28;20442;-82
2022/11/28 03:40:59;;;;;;;17.27;10.77;;;;;;;;;;5087038;28;20040;-81
2022/11/28 03:43:27;;;;;;;18.30;12.38;;;;;;;;;;5098857;28;20034;-81
2022/11/28 03:45:56;;;;;;;18.27;11.43;;;;;;;;;;5084726;28;20013;-82
2022/11/28 03:48:27;;;;;;;18.10;11.57;;;;;;;;;;5084268;28;20025;-82
2022/11/28 03:50:59;;;;;;;20.33;12.60;;;;;;;;;;5103210;28;20032;-81
2022/11/28 03:53:34;;;;;;;19.52;12.77;;;;;;;;;;5068897;28;20028;-80
2022/11/28 03:56:02;;;;;;;17.58;11.23;;;;;;;;;;5069159;28;20028;-81
2022/11/28 03:58:47;;;;;;;18.27;11.75;;;;;;;;;;5103163;28;20072;-81
2022/11/28 04:01:26;;;;;;;20.65;13.27;;;;;;;;;;5082371;28;20040;-80
2022/11/28 04:03:55;;;;;;;19.40;11.75;;;;;;;;;;5085385;28;20027;-80
2022/11/28 04:06:33;;;;;;;20.50;12.77;;;;;;;;;;5096313;28;20063;-81
2022/11/28 04:09:05;;;;;;;23.77;14.07;;;;;;;;;;5089083;28;20362;-81
2022/11/28 04:11:36;;;;;;;19.67;12.30;;;;;;;;;;5078541;28;20053;-81
2022/11/28 04:14:02;;;;;;;21.40;13.00;;;;;;;;;;5069371;28;20041;-80
2022/11/28 04:16:34;;;;;;;22.13;12.50;;;;;;;;;;5070954;28;20052;-81
2022/11/28 04:19:00;;;;;;;23.40;14.32;;;;;;;;;;5085569;28;20025;-81
2022/11/28 04:21:26;;;;;;;23.80;13.73;;;;;;;;;;5084763;28;20330;-81
2022/11/28 04:23:54;;;;;;;21.10;13.20;;;;;;;;;;5083107;28;20035;-80
2022/11/28 04:26:24;;;;;;;19.20;12.35;;;;;;;;;;5085531;28;20028;-82
2022/11/28 04:28:51;;;;;;;17.40;11.05;;;;;;;;;;5081902;28;20400;-82
2022/11/28 04:31:21;;;;;;;20.25;12.48;;;;;;;;;;5084297;28;20051;-82
2022/11/28 04:33:52;;;;;;;17.65;11.48;;;;;;;;;;5086074;28;20445;-82
2022/11/28 04:36:24;;;;;;;21.17;12.38;;;;;;;;;;5064408;28;20043;-82
2022/11/28 04:38:55;;;;;;;17.33;11.35;;;;;;;;;;5085280;28;20021;-81
2022/11/28 04:41:29;;;;;;;17.10;11.50;;;;;;;;;;5071441;28;20032;-81
2022/11/28 04:44:00;;;;;;;18.80;12.00;;;;;;;;;;5102741;28;20031;-81
2022/11/28 04:46:29;;;;;;;15.95;10.90;;;;;;;;;;5083284;28;20050;-81
2022/11/28 04:48:55;;;;;;;17.45;11.23;;;;;;;;;;5090629;28;20050;-82
2022/11/28 04:51:40;;;;;;;19.23;12.52;;;;;;;;;;5066073;28;20159;-82
2022/11/28 04:54:10;;;;;;;19.42;12.30;;;;;;;;;;5070723;28;20020;-82
2022/11/28 04:56:39;;;;;;;18.58;10.88;;;;;;;;;;5082996;28;20020;-82
2022/11/28 04:59:06;;;;;;;14.82;9.85;;;;;;;;;;5084983;28;20024;-82
2022/11/28 05:01:33;;;;;;;18.70;12.10;;;;;;;;;;5104771;28;20043;-81
2022/11/28 05:03:59;;;;;;;17.98;11.15;;;;;;;;;;5107006;27;20031;-79
2022/11/28 05:06:27;;;;;;;19.75;12.25;;;;;;;;;;5098782;28;20122;-81
2022/11/28 05:08:53;;;;;;;18.15;11.70;;;;;;;;;;5058044;28;20426;-80
2022/11/28 05:11:19;;;;;;;18.60;11.50;;;;;;;;;;5053792;28;20028;-80
2022/11/28 05:13:45;;;;;;;18.85;11.80;;;;;;;;;;5060941;28;20084;-80
2022/11/28 05:16:14;;;;;;;20.15;12.95;;;;;;;;;;5057631;28;20043;-80
2022/11/28 05:18:40;;;;;;;19.23;11.88;;;;;;;;;;5046609;28;20048;-80
2022/11/28 05:21:07;;;;;;;19.15;11.77;;;;;;;;;;5062275;28;20064;-80
2022/11/28 05:23:35;;;;;;;20.52;11.88;;;;;;;;;;5063203;28;20024;-81
2022/11/28 05:26:04;;;;;;;22.02;12.45;;;;;;;;;;5063192;28;20025;-82
2022/11/28 05:28:30;;;;;;;20.30;12.25;;;;;;;;;;5046680;28;20037;-81
2022/11/28 05:31:00;;;;;;;21.88;12.90;;;;;;;;;;5066089;28;20466;-81
2022/11/28 05:33:26;;;;;;;18.58;10.80;;;;;;;;;;5047992;28;20044;-81
2022/11/28 05:35:52;;;;;;;16.85;10.45;;;;;;;;;;5043748;28;20111;-81
2022/11/28 05:38:18;;;;;;;16.38;10.43;;;;;;;;;;5061875;28;20059;-81
2022/11/28 05:40:44;;;;;;;16.10;11.00;;;;;;;;;;5060297;28;20032;-80
2022/11/28 05:43:11;;;;;;;17.73;11.65;;;;;;;;;;5061216;28;20052;-79
2022/11/28 05:45:43;;;;;;;16.10;11.05;;;;;;;;;;5077471;28;20049;-78
2022/11/28 05:48:09;;;;;;;;;;;;;;;;;;5060404;28;20052;-79
2022/11/28 05:50:37;;;;;;;17.02;10.77;;;;;;;;;;5058789;28;19904;-79
2022/11/28 05:53:05;;;;;;;14.10;9.65;;;;;;;;;;5059877;28;20021;-81
2022/11/28 05:55:31;;;;;;;17.67;11.30;;;;;;;;;;5060200;28;20060;-80
2022/11/28 05:57:57;;;;;;;16.30;10.43;;;;;;;;;;5059313;28;20049;-80
2022/11/28 06:00:23;;;;;;;17.90;11.23;;;;;;;;;;5061663;28;20035;-80
2022/11/28 06:02:49;;;;;;;16.80;11.35;;;;;;;;;;5059618;28;20041;-81
2022/11/28 06:05:15;;;;;;;18.20;11.80;;;;;;;;;;5042539;28;20086;-80
2022/11/28 06:07:41;;;;;;;17.73;11.48;;;;;;;;;;5059425;28;20037;-80
2022/11/28 06:10:07;;;;;;;16.15;11.23;;;;;;;;;;5073063;28;20009;-80
2022/11/28 06:12:33;;;;;;;17.60;11.32;;;;;;;;;;5077050;28;20080;-79
2022/11/28 06:14:59;;;;;;;16.65;11.07;;;;;;;;;;5062647;28;20055;-80
2022/11/28 06:17:25;;;;;;;17.88;11.50;;;;;;;;;;5042637;28;20021;-80
2022/11/28 06:19:51;;;;;;;20.13;12.32;;;;;;;;;;5044181;28;20021;-79
2022/11/28 06:22:17;;;;;;;17.63;11.05;;;;;;;;;;5042171;28;20036;-80
2022/11/28 06:24:43;;;;;;;16.40;10.57;;;;;;;;;;5062290;28;20025;-79
2022/11/28 06:27:09;;;;;;;18.52;10.60;;;;;;;;;;5046266;28;20036;-79
2022/11/28 06:29:35;;;;;;;16.15;11.20;;;;;;;;;;5061064;28;20052;-80
2022/11/28 06:32:01;;;;;;;14.57;9.88;;;;;;;;;;5061598;28;20051;-80
2022/11/28 06:34:27;;;;;;;15.00;10.50;;;;;;;;;;5040168;28;20021;-79
2022/11/28 06:36:53;;;;;;;15.13;9.60;;;;;;;;;;5039658;28;20025;-80
2022/11/28 06:39:20;;;;;;;16.17;10.48;;;;;;;;;;5059317;28;20025;-80
2022/11/28 06:41:46;;;;;;;14.35;9.57;;;;;;;;;;5071374;28;20025;-80
2022/11/28 06:44:13;;;;;;;17.30;9.65;;;;;;;;;;5051317;28;20041;-80
2022/11/28 06:46:39;;;;;;;12.75;8.85;;;;;;;;;;5069947;28;20080;-80
2022/11/28 06:49:05;;;;;;;15.63;9.50;;;;;;;;;;5045244;28;20029;-81
2022/11/28 06:51:31;;;;;;;14.60;9.60;;;;;;;;;;5059264;28;20040;-81
2022/11/28 06:53:57;;;;;;;15.73;9.80;;;;;;;;;;5040991;28;20029;-80
2022/11/28 06:56:23;;;;;;;13.70;9.48;;;;;;;;;;5061582;28;20029;-81
2022/11/28 06:58:53;;;;;;;13.57;8.52;;;;;;;;;;5059979;28;20040;-82
2022/11/28 07:01:20;;;;;;;15.30;10.23;;;;;;;;;;5043171;28;20040;-81
2022/11/28 07:03:47;;;;;;;16.17;10.60;;;;;;;;;;5043235;28;20043;-81
2022/11/28 07:06:13;;;;;;;13.70;9.07;;;;;;;;;;5046048;28;20045;-82
2022/11/28 07:08:39;;;;;;;16.88;10.63;;;;;;;;;;5073797;28;20056;-80
2022/11/28 07:11:12;;;;;;;15.75;9.95;;;;;;;;;;5045510;28;20059;-82
2022/11/28 07:13:38;;;;;;;14.40;9.10;;;;;;;;;;5059761;28;20392;-81
2022/11/28 07:16:04;;;;;;;15.93;10.00;;;;;;;;;;5061324;28;20032;-81
2022/11/28 07:18:30;;;;;;;13.63;9.05;;;;;;;;;;5068740;28;20040;-82
2022/11/28 07:20:57;;;;;;;14.75;9.48;;;;;;;;;;5086316;28;20036;-81
2022/11/28 07:23:23;;;;;;;13.63;8.75;;;;;;;;;;5087274;28;20095;-80
2022/11/28 07:25:49;;;;;;;15.15;10.00;;;;;;;;;;5088146;28;20024;-79
2022/11/28 07:28:15;;;;;;;14.32;9.60;;;;;;;;;;5088349;28;20025;-81
2022/11/28 07:30:41;;;;;;;14.15;9.00;;;;;;;;;;5086275;28;20024;-81
2022/11/28 07:33:07;;;;;;;14.73;9.10;;;;;;;;;;5093053;28;20028;-81
2022/11/28 07:35:33;;;;;;;15.68;9.43;;;;;;;;;;5074390;28;20043;-79
2022/11/28 07:37:59;;;;;;;18.33;10.63;;;;;;;;;;5087032;28;20032;-81
2022/11/28 07:40:25;;;;;;;16.38;10.15;;;;;;;;;;5075200;28;20026;-80
2022/11/28 07:42:51;;;;;;;13.05;9.20;;;;;;;;;;5085697;28;20104;-81
2022/11/28 07:45:17;;;;;;;13.00;8.10;;;;;;;;;;5083109;28;20028;-82
2022/11/28 07:47:43;;;;;;;10.73;8.00;;;;;;;;;;5062394;28;20031;-81
2022/11/28 07:50:09;;;;;;;15.52;8.93;;;;;;;;;;5061058;28;20028;-80
2022/11/28 07:52:36;;;;;;;12.57;8.45;;;;;;;;;;5061222;28;20036;-81
2022/11/28 07:55:02;;;;;;;15.23;8.93;;;;;;;;;;5079742;28;20024;-81
2022/11/28 07:57:29;;;;;;;13.55;9.30;;;;;;;;;;5080238;28;20035;-80
2022/11/28 07:59:55;;;;;;;12.82;8.65;;;;;;;;;;5079241;28;20016;-81
2022/11/28 08:02:21;;;;;;;14.57;9.23;;;;;;;;;;5082027;28;20036;-80
2022/11/28 08:04:47;;;;;;;16.27;9.48;;;;;;;;;;5082438;28;20047;-81
2022/11/28 08:07:13;;;;;;;11.63;7.88;;;;;;;;;;5081592;28;20029;-80
2022/11/28 08:09:39;;;;;;;13.15;8.55;;;;;;;;;;5057260;28;20245;-80
2022/11/28 08:12:05;;;;;;;14.35;8.48;;;;;;;;;;5059779;28;20041;-82
2022/11/28 08:14:31;;;;;;;12.50;8.77;;;;;;;;;;5076710;28;20051;-81
2022/11/28 08:16:57;;;;;;;11.43;7.80;;;;;;;;;;5067598;28;20599;-81
2022/11/28 08:19:23;;;;;;;11.95;7.68;;;;;;;;;;5049205;28;20021;-80
2022/11/28 08:21:50;;;;;;;12.90;8.45;;;;;;;;;;5065960;28;20014;-79
2022/11/28 08:24:17;;;;;;;13.57;8.07;;;;;;;;;;5066311;28;20013;-80
2022/11/28 08:26:43;;;;;;;10.25;7.47;;;;;;;;;;5051018;28;20043;-80
2022/11/28 08:29:09;;;;;;;10.75;7.72;;;;;;;;;;5074717;28;20028;-81
2022/11/28 08:31:37;;;;;;;9.63;7.10;;;;;;;;;;5070276;28;20082;-81
2022/11/28 08:34:04;;;;;;;10.15;6.70;;;;;;;;;;5087651;28;20055;-81
2022/11/28 08:36:30;;;;;;;13.60;8.63;;;;;;;;;;5074705;28;20057;-79
2022/11/28 08:39:02;;;;;;;13.50;7.88;;;;;;;;;;5081341;28;20032;-80
2022/11/28 08:41:28;;;;;;;11.38;7.63;;;;;;;;;;5078468;28;20039;-79
2022/11/28 08:43:54;;;;;;;10.48;7.00;;;;;;;;;;5076720;28;20036;-81
2022/11/28 08:46:21;;;;;;;9.10;6.75;;;;;;;;;;5068140;28;20108;-80
2022/11/28 08:48:48;;;;;;;9.20;6.88;;;;;;;;;;5065543;28;20029;-80
2022/11/28 08:51:15;;;;;;;9.38;6.53;;;;;;;;;;5063756;28;20025;-80
2022/11/28 08:53:41;;;;;;;10.20;6.25;;;;;;;;;;5061647;28;20049;-82
2022/11/28 08:56:07;;;;;;;7.20;5.45;;;;;;;;;;5063081;28;20028;-81
2022/11/28 08:58:33;;;;;;;7.80;5.45;;;;;;;;;;5062631;28;20071;-80
2022/11/28 09:00:59;;;;;;;7.95;5.63;;;;;;;;;;5046261;28;20033;-79
2022/11/28 09:03:25;;;;;;;9.85;5.53;;;;;;;;;;5083938;28;20036;-80
2022/11/28 09:05:52;;;;;;;7.53;5.95;;;;;;;;;;5074410;28;20414;-80
2022/11/28 09:08:19;;;;;;;9.60;5.97;;;;;;;;;;5080586;28;20046;-81
2022/11/28 09:10:45;;;;;;;9.93;6.68;;;;;;;;;;5050977;28;20088;-79
2022/11/28 09:13:12;;;;;;;8.77;5.68;;;;;;;;;;5067254;28;20025;-80
2022/11/28 09:15:39;;;;;;;9.43;6.13;;;;;;;;;;5067216;28;20032;-81
2022/11/28 09:18:05;;;;;;;10.15;6.20;;;;;;;;;;5061353;28;20025;-80
2022/11/28 09:20:31;;;;;;;11.45;7.70;;;;;;;;;;5050733;28;20044;-79
2022/11/28 09:22:57;;;;;;;11.00;7.30;;;;;;;;;;5046012;28;20017;-81
2022/11/28 09:25:23;;;;;;;12.68;8.02;;;;;;;;;;5061099;28;20032;-80
2022/11/28 09:27:49;;;;;;;8.95;6.60;;;;;;;;;;5059501;28;20025;-80
2022/11/28 09:30:15;;;;;;;9.32;6.53;;;;;;;;;;5060672;28;20024;-81
2022/11/28 09:32:41;;;;;;;8.55;6.05;;;;;;;;;;5061200;28;20078;-80
2022/11/28 09:35:07;;;;;;;8.60;6.28;;;;;;;;;;5063739;28;20082;-81
2022/11/28 09:37:33;;;;;;;6.18;4.78;;;;;;;;;;5065189;28;20033;-81
2022/11/28 09:40:00;;;;;;;11.32;6.20;;;;;;;;;;5056631;28;20035;-81
2022/11/28 09:42:40;;;;;;;9.05;6.47;;;;;;;;;;5079857;28;20035;-81
2022/11/28 09:45:10;;;;;;;7.13;5.40;;;;;;;;;;5085291;28;20092;-80
2022/11/28 09:47:37;;;;;;;7.05;4.65;;;;;;;;;;5087086;28;20028;-81
2022/11/28 09:50:09;;;;;;;5.45;4.20;;;;;;;;;;5087040;28;20024;-81
2022/11/28 09:52:45;;;;;;;7.60;5.13;;;;;;;;;;5085156;28;20090;-81
2022/11/28 09:55:11;;;;;;;9.07;6.30;;;;;;;;;;5082994;28;20031;-82
2022/11/28 09:57:43;;;;;;;13.43;6.85;;;;;;;;;;5063133;28;20036;-82
2022/11/28 10:00:15;;;;;;;11.90;6.28;;;;;;;;;;5082856;28;20029;-80
2022/11/28 10:03:00;;;;;;;8.25;5.82;;;;;;;;;;5061192;28;20036;-82
2022/11/28 10:05:27;;;;;;;10.02;5.97;;;;;;;;;;5079519;28;20016;-78
2022/11/28 10:07:53;;;;;;;9.18;5.95;;;;;;;;;;5078170;28;20032;-79
2022/11/28 10:10:19;;;;;;;8.18;5.88;;;;;;;;;;5076253;28;20096;-79
2022/11/28 10:12:49;;;;;;;9.73;6.28;;;;;;;;;;5088036;28;20028;-79
2022/11/28 10:15:25;;;;;;;8.30;5.68;;;;;;;;;;5078504;28;20066;-79
2022/11/28 10:18:10;;;;;;;7.95;5.68;;;;;;;;;;5080491;28;20078;-79
2022/11/28 10:20:41;;;;;;;9.88;5.72;;;;;;;;;;5078359;28;20037;-78
2022/11/28 10:23:08;;;;;;;7.53;4.88;;;;;;;;;;5078014;28;20033;-79
2022/11/28 10:25:38;;;;;;;6.07;4.82;;;;;;;;;;5077119;28;20052;-78
2022/11/28 10:28:06;;;;;;;7.78;5.30;;;;;;;;;;5078968;28;20058;-80
2022/11/28 10:30:35;;;;;;;9.18;5.40;;;;;;;;;;5077019;28;20056;-79
2022/11/28 10:33:01;;;;;;;7.47;4.72;;;;;;;;;;5059212;28;20025;-79
2022/11/28 10:35:31;;;;;;;5.75;4.03;;;;;;;;;;5077605;28;20435;-79
2022/11/28 10:37:57;;;;;;;5.53;4.63;;;;;;;;;;5076466;28;20040;-80
2022/11/28 10:40:35;;;;;;;10.98;6.13;;;;;;;;;;5068585;28;20520;-79
2022/11/28 10:43:03;;;;;;;13.05;6.15;;;;;;;;;;5064686;28;20036;-82
2022/11/28 10:45:47;;;;;;;8.73;5.22;;;;;;;;;;5080495;28;20025;-80
2022/11/28 10:48:42;;;;;;;15.32;6.90;;;;;;;;;;5080763;28;20350;-81
2022/11/28 10:51:17;;;;;;;8.63;5.60;;;;;;;;;;5060930;28;20481;-82
2022/11/28 10:53:43;;;;;;;10.23;5.60;;;;;;;;;;5062844;28;20123;-82
2022/11/28 10:56:24;;;;;;;6.85;5.05;;;;;;;;;;5080494;28;20025;-83
2022/11/28 10:58:56;;;;;;;11.25;5.72;;;;;;;;;;5080133;28;20027;-82
2022/11/28 11:01:23;;;;;;;5.85;4.85;;;;;;;;;;5081025;28;20090;-79
2022/11/28 11:03:49;;;;;;;7.53;5.15;;;;;;;;;;5080450;28;20112;-83
2022/11/28 11:06:15;;;;;;;6.97;4.38;;;;;;;;;;5064726;28;20028;-83
2022/11/28 11:08:41;;;;;;;5.70;4.22;;;;;;;;;;5062350;28;20024;-82
2022/11/28 11:11:07;;;;;;;7.05;4.70;;;;;;;;;;5057035;28;20021;-82
2022/11/28 11:13:52;;;;;;;7.60;4.72;;;;;;;;;;5061122;28;20040;-83
2022/11/28 11:16:18;;;;;;;6.30;4.43;;;;;;;;;;5061004;28;20048;-80
2022/11/28 11:18:47;;;;;;;7.03;4.63;;;;;;;;;;5043698;28;20021;-81
2022/11/28 11:21:17;;;;;;;5.93;4.47;;;;;;;;;;5042955;28;20460;-83
2022/11/28 11:23:43;;;;;;;5.75;4.15;;;;;;;;;;5061327;28;20025;-83
2022/11/28 11:26:28;;;;;;;5.25;3.65;;;;;;;;;;5059419;28;20021;-84
2022/11/28 11:28:54;;;;;;;6.90;5.38;;;;;;;;;;5059631;28;20025;-83
2022/11/28 11:31:22;;;;;;;6.70;4.72;;;;;;;;;;5059382;28;20073;-81
2022/11/28 11:33:51;;;;;;;7.25;5.15;;;;;;;;;;5068772;28;20021;-83
2022/11/28 11:36:25;;;;;;;7.18;5.47;;;;;;;;;;5060399;28;20107;-81
2022/11/28 11:38:52;;;;;;;6.43;4.57;;;;;;;;;;5060166;28;20054;-81
2022/11/28 11:41:41;;;;;;;6.88;4.78;;;;;;;;;;5074595;28;20029;-84
2022/11/28 11:44:14;;;;;;;10.52;4.75;;;;;;;;;;5066139;28;20162;-84
2022/11/28 11:46:52;;;;;;;7.05;4.30;;;;;;;;;;5084779;28;20024;-82
2022/11/28 11:49:28;;;;;;;11.63;6.18;;;;;;;;;;5084690;28;20032;-81
2022/11/28 11:51:59;;;;;;;9.10;5.10;;;;;;;;;;5083263;28;20435;-84
2022/11/28 11:54:26;;;;;;;7.93;4.88;;;;;;;;;;5080840;28;20477;-83
2022/11/28 11:56:52;;;;;;;6.82;4.90;;;;;;;;;;5065670;28;20028;-82
2022/11/28 11:59:30;;;;;;;5.28;4.57;;;;;;;;;;5071869;28;20029;-85
2022/11/28 12:01:58;;;;;;;6.75;4.75;;;;;;;;;;5085168;28;20048;-83
2022/11/28 12:04:29;;;;;;;7.38;4.90;;;;;;;;;;5086256;28;20029;-84
2022/11/28 12:06:58;;;;;;;8.45;5.35;;;;;;;;;;5087288;28;20084;-82
2022/11/28 12:09:28;;;;;;;6.75;4.15;;;;;;;;;;5096891;28;20013;-80
2022/11/28 12:12:14;;;;;;;8.07;5.03;;;;;;;;;;5070935;28;20020;-79
2022/11/28 12:14:40;;;;;;;10.38;5.07;;;;;;;;;;5071731;28;20048;-81
2022/11/28 12:17:09;;;;;;;7.55;5.03;;;;;;;;;;5080192;28;20481;-84
2022/11/28 12:19:38;;;;;;;7.95;4.85;;;;;;;;;;5086744;28;20103;-80
2022/11/28 12:22:16;;;;;;;7.72;5.45;;;;;;;;;;5069536;28;20025;-82
2022/11/28 12:25:01;;;;;;;10.48;7.30;;;;;;;;;;5086153;28;20059;-83
2022/11/28 12:27:27;;;;;;;11.07;6.65;;;;;;;;;;5084955;28;20059;-83
2022/11/28 12:30:01;;;;;;;13.45;6.88;;;;;;;;;;5085443;28;20096;-83
2022/11/28 12:32:46;;;;;;;11.65;6.70;;;;;;;;;;5086406;28;20024;-84
2022/11/28 12:35:15;;;;;;;8.70;5.68;;;;;;;;;;5084369;28;20020;-83
2022/11/28 12:37:52;;;;;;;15.23;7.57;;;;;;;;;;5084349;28;20811;-83
2022/11/28 12:40:32;;;;;;;8.23;6.45;;;;;;;;;;5073366;28;20021;-82
2022/11/28 12:43:08;;;;;;;8.73;6.00;;;;;;;;;;5083698;28;20044;-84
2022/11/28 12:45:50;;;;;;;9.20;6.32;;;;;;;;;;5065423;28;20385;-82
2022/11/28 12:48:35;;;;;;;11.50;6.50;;;;;;;;;;5065830;28;20025;-84
2022/11/28 12:51:20;;;;;;;11.90;6.85;;;;;;;;;;5082458;28;20074;-82
2022/11/28 12:54:04;;;;;;;13.95;6.30;;;;;;;;;;5084431;28;20004;-84
2022/11/28 12:56:30;;;;;;;15.02;7.78;;;;;;;;;;5081962;28;20074;-83
2022/11/28 12:59:00;;;;;;;15.15;7.47;;;;;;;;;;5064210;28;20417;-80
2022/11/28 13:01:38;;;;;;;10.80;7.18;;;;;;;;;;5064532;28;20392;-81
2022/11/28 13:04:22;;;;;;;11.43;6.65;;;;;;;;;;5082558;28;20106;-82
2022/11/28 13:07:00;;;;;;;14.38;8.05;;;;;;;;;;5081032;28;20058;-81
2022/11/28 13:09:28;;;;;;;15.02;8.00;;;;;;;;;;5084121;28;20039;-81
2022/11/28 13:12:13;;;;;;;15.70;9.40;;;;;;;;;;5071018;28;20501;-82
2022/11/28 13:14:55;;;;;;;15.52;7.40;;;;;;;;;;5064453;28;20028;-82
2022/11/28 13:17:24;;;;;;;17.13;8.00;;;;;;;;;;5046694;28;20029;-82
2022/11/28 13:20:00;;;;;;;15.48;8.73;;;;;;;;;;5065083;28;20326;-82
2022/11/28 13:22:34;;;;;;;12.23;8.15;;;;;;;;;;5062793;28;20025;-81
2022/11/28 13:25:00;;;;;;;12.93;7.35;;;;;;;;;;5063866;28;20527;-83
2022/11/28 13:27:35;;;;;;;11.65;7.53;;;;;;;;;;5067097;28;20027;-82
2022/11/28 13:30:19;;;;;;;14.23;7.20;;;;;;;;;;5049955;28;20085;-82
2022/11/28 13:32:58;;;;;;;12.45;8.05;;;;;;;;;;5048950;28;20167;-80
2022/11/28 13:35:28;;;;;;;13.73;8.30;;;;;;;;;;5069866;28;20021;-82
2022/11/28 13:38:07;;;;;;;12.38;7.60;;;;;;;;;;5050161;28;20024;-80
2022/11/28 13:40:39;;;;;;;12.23;7.68;;;;;;;;;;5058520;28;20136;-82
2022/11/28 13:43:17;;;;;;;12.07;7.45;;;;;;;;;;5049664;28;20111;-81
2022/11/28 13:45:44;;;;;;;12.15;7.25;;;;;;;;;;5066620;28;20021;-81
2022/11/28 13:48:29;;;;;;;11.98;6.97;;;;;;;;;;5067632;28;20028;-79
2022/11/28 13:51:21;;;;;;;15.52;8.82;;;;;;;;;;5067705;28;20029;-80
2022/11/28 13:53:48;;;;;;;13.55;8.27;;;;;;;;;;5046123;28;20090;-80
2022/11/28 13:56:22;;;;;;;13.85;8.75;;;;;;;;;;5050064;28;20025;-81
2022/11/28 13:58:48;;;;;;;12.07;7.63;;;;;;;;;;5067611;28;20021;-81
2022/11/28 14:01:16;;;;;;;12.30;7.88;;;;;;;;;;5050957;28;20075;-81
2022/11/28 14:03:43;;;;;;;11.73;7.60;;;;;;;;;;5071071;28;20123;-79
2022/11/28 14:06:10;;;;;;;12.02;8.00;;;;;;;;;;5072842;28;20024;-78
2022/11/28 14:08:38;;;;;;;10.15;6.80;;;;;;;;;;5076075;28;20029;-78
2022/11/28 14:11:23;;;;;;;9.82;6.55;;;;;;;;;;5060070;28;20025;-79
2022/11/28 14:13:57;;;;;;;11.88;7.82;;;;;;;;;;5077377;28;20088;-78
2022/11/28 14:16:30;;;;;;;8.45;6.05;;;;;;;;;;5060636;28;20024;-78
2022/11/28 14:18:59;;;;;;;14.80;8.73;;;;;;;;;;5077953;28;20073;-79
2022/11/28 14:21:32;;;;;;;18.30;9.27;;;;;;;;;;5072131;28;20036;-79
2022/11/28 14:24:02;;;;;;;12.13;8.05;;;;;;;;;;5068098;28;20029;-82
2022/11/28 14:26:36;;;;;;;19.60;8.32;;;;;;;;;;5042561;28;20085;-80
2022/11/28 14:29:03;;;;;;;15.73;7.60;;;;;;;;;;5064052;28;20040;-80
2022/11/28 14:31:37;;;;;;;11.35;6.95;;;;;;;;;;5060747;28;20028;-80
2022/11/28 14:34:04;;;;;;;8.32;5.95;;;;;;;;;;5061272;28;20020;-81
2022/11/28 14:36:41;;;;;;;9.45;6.25;;;;;;;;;;5062384;28;20032;-79
2022/11/28 14:39:18;;;;;;;9.93;6.03;;;;;;;;;;5051574;28;20040;-81
2022/11/28 14:42:03;;;;;;;7.90;5.75;;;;;;;;;;5055178;28;20013;-79
2022/11/28 14:44:49;;;;;;;10.75;5.78;;;;;;;;;;5065691;28;20021;-81